Huvudsida
METAR-TAF:

METAR-TAF

Flygplatser :

Kaltag, Alaska, USA

latitud: 64-19N, longitud: 158-44W, höjd: 54 m

Aktuellt väderrapport

Denna rapport gjordes för 32 minuter sedan, klockan 17:53 UTC
Vind 4 kt varierande vindriktning
Temperatur 13°C
Fuktighet 58%
Tryck 1025 hPa
Sikt: 16.1 km
Klar himmel

METAR: PAKV 141753Z AUTO VRB04KT 10SM CLR 13/05 A3027 RMK AO2 SLP254 T01280050 10128 20056 51002 TSNO $

Tid: 10:25 (18:25 UTC)


TAF: saknas

Aktuella väderrapporter och prognoser från 4000 flygplatser (METAR- och TAF-rapporter).

De tillgängliga stationerna syns som gula och röda prickar på kartan.

För musen över prickarna för att se namnen på stationerna.

Klicka sedan för att få väderrapporter och prognoser.

För att ändra kartan: Klicka på de gröna knapparna med ett svart kors på för att zooma in; den gröna knappen med ett streck på för att zooma ut; eller på de gröna pilarna för angränsande kartor.


METAR-TAF: